sensor_id;sensor_type;location;lat;lon;timestamp;pressure;altitude;pressure_sealevel;temperature;humidity
1480;BME280;732;51.698;4.886;2024-02-26T00:00:08;100058.78;;;4.74;81.52
1480;BME280;732;51.698;4.886;2024-02-26T00:02:37;100063.94;;;4.76;81.51
1480;BME280;732;51.698;4.886;2024-02-26T00:05:08;100058.72;;;4.84;81.44
1480;BME280;732;51.698;4.886;2024-02-26T00:07:36;100053.03;;;4.79;81.28
1480;BME280;732;51.698;4.886;2024-02-26T00:10:09;100039.47;;;4.64;81.20
1480;BME280;732;51.698;4.886;2024-02-26T00:12:37;99983.19;;;4.26;81.28
1480;BME280;732;51.698;4.886;2024-02-26T00:15:09;100059.00;;;4.81;81.26
1480;BME280;732;51.698;4.886;2024-02-26T00:17:37;100036.31;;;4.60;81.52
1480;BME280;732;51.698;4.886;2024-02-26T00:20:07;100040.78;;;4.78;81.27
1480;BME280;732;51.698;4.886;2024-02-26T00:22:38;100032.44;;;4.73;81.32
1480;BME280;732;51.698;4.886;2024-02-26T00:25:08;100031.31;;;4.75;80.83
1480;BME280;732;51.698;4.886;2024-02-26T00:27:36;100017.44;;;4.82;80.45
1480;BME280;732;51.698;4.886;2024-02-26T00:30:08;100043.03;;;4.91;80.31
1480;BME280;732;51.698;4.886;2024-02-26T00:32:36;100046.50;;;4.91;80.21
1480;BME280;732;51.698;4.886;2024-02-26T00:35:07;100025.03;;;4.76;80.55
1480;BME280;732;51.698;4.886;2024-02-26T00:37:36;100061.75;;;4.89;80.43
1480;BME280;732;51.698;4.886;2024-02-26T00:40:08;100066.56;;;4.94;80.58
1480;BME280;732;51.698;4.886;2024-02-26T00:42:37;100010.13;;;4.57;81.21
1480;BME280;732;51.698;4.886;2024-02-26T00:45:07;100025.84;;;4.59;81.27
1480;BME280;732;51.698;4.886;2024-02-26T00:47:35;100064.69;;;4.86;81.48
1480;BME280;732;51.698;4.886;2024-02-26T00:50:05;100068.09;;;4.78;81.99
1480;BME280;732;51.698;4.886;2024-02-26T00:52:34;100064.22;;;4.73;83.02
1480;BME280;732;51.698;4.886;2024-02-26T00:55:04;100024.50;;;4.55;82.94
1480;BME280;732;51.698;4.886;2024-02-26T00:57:35;100061.56;;;4.73;83.36
1480;BME280;732;51.698;4.886;2024-02-26T01:00:05;100059.53;;;4.48;83.84
1480;BME280;732;51.698;4.886;2024-02-26T01:02:36;100054.38;;;4.47;84.12
1480;BME280;732;51.698;4.886;2024-02-26T01:05:06;100037.69;;;4.37;84.40
1480;BME280;732;51.698;4.886;2024-02-26T01:07:36;100057.78;;;4.39;84.37
1480;BME280;732;51.698;4.886;2024-02-26T01:10:06;100035.00;;;4.28;84.14
1480;BME280;732;51.698;4.886;2024-02-26T01:12:36;100050.88;;;4.28;84.31
1480;BME280;732;51.698;4.886;2024-02-26T01:15:06;100071.25;;;4.46;84.40
1480;BME280;732;51.698;4.886;2024-02-26T01:17:36;100061.47;;;4.28;83.76
1480;BME280;732;51.698;4.886;2024-02-26T01:20:07;100045.13;;;4.05;83.99
1480;BME280;732;51.698;4.886;2024-02-26T01:22:37;100083.91;;;4.24;84.51
1480;BME280;732;51.698;4.886;2024-02-26T01:25:06;100057.22;;;4.08;84.69
1480;BME280;732;51.698;4.886;2024-02-26T01:27:38;99949.63;;;3.43;84.61
1480;BME280;732;51.698;4.886;2024-02-26T01:30:10;100062.97;;;4.03;85.28
1480;BME280;732;51.698;4.886;2024-02-26T01:32:40;100077.00;;;4.13;84.99
1480;BME280;732;51.698;4.886;2024-02-26T01:35:09;100077.50;;;4.27;85.07
1480;BME280;732;51.698;4.886;2024-02-26T01:37:39;100065.28;;;4.16;85.13
1480;BME280;732;51.698;4.886;2024-02-26T01:40:10;100062.19;;;4.21;85.15
1480;BME280;732;51.698;4.886;2024-02-26T01:42:41;100061.78;;;4.15;84.80
1480;BME280;732;51.698;4.886;2024-02-26T01:45:15;100063.59;;;4.15;84.96
1480;BME280;732;51.698;4.886;2024-02-26T01:47:51;100076.41;;;4.20;84.80
1480;BME280;732;51.698;4.886;2024-02-26T01:50:21;100084.34;;;4.20;84.65
1480;BME280;732;51.698;4.886;2024-02-26T01:52:52;100083.75;;;4.26;84.64
1480;BME280;732;51.698;4.886;2024-02-26T01:55:23;100073.75;;;4.20;84.78
1480;BME280;732;51.698;4.886;2024-02-26T01:57:54;100092.78;;;4.33;84.92
1480;BME280;732;51.698;4.886;2024-02-26T02:00:23;100096.16;;;4.25;85.68
1480;BME280;732;51.698;4.886;2024-02-26T02:02:53;100097.03;;;4.16;85.86
1480;BME280;732;51.698;4.886;2024-02-26T02:05:23;100070.06;;;3.93;86.64
1480;BME280;732;51.698;4.886;2024-02-26T02:07:52;100088.25;;;4.15;86.66
1480;BME280;732;51.698;4.886;2024-02-26T02:10:22;100092.13;;;4.21;86.31
1480;BME280;732;51.698;4.886;2024-02-26T02:12:54;100069.38;;;4.01;86.74
1480;BME280;732;51.698;4.886;2024-02-26T02:15:23;100088.97;;;4.08;87.19
1480;BME280;732;51.698;4.886;2024-02-26T02:17:52;99964.13;;;3.29;87.28
1480;BME280;732;51.698;4.886;2024-02-26T02:20:26;100057.34;;;3.78;87.86
1480;BME280;732;51.698;4.886;2024-02-26T02:23:00;100088.59;;;4.03;87.95
1480;BME280;732;51.698;4.886;2024-02-26T02:25:29;100095.13;;;4.08;87.45
1480;BME280;732;51.698;4.886;2024-02-26T02:27:58;100100.22;;;4.20;87.19
1480;BME280;732;51.698;4.886;2024-02-26T02:30:29;100107.63;;;4.16;87.12
1480;BME280;732;51.698;4.886;2024-02-26T02:33:00;100094.56;;;4.05;87.38
1480;BME280;732;51.698;4.886;2024-02-26T02:35:31;100087.38;;;3.87;87.17
1480;BME280;732;51.698;4.886;2024-02-26T02:38:00;100115.59;;;4.06;87.43
1480;BME280;732;51.698;4.886;2024-02-26T02:40:29;100096.41;;;3.94;87.45
1480;BME280;732;51.698;4.886;2024-02-26T02:42:57;100096.13;;;3.88;87.58
1480;BME280;732;51.698;4.886;2024-02-26T02:45:27;100099.50;;;3.80;87.81
1480;BME280;732;51.698;4.886;2024-02-26T02:47:55;100099.53;;;3.60;88.21
1480;BME280;732;51.698;4.886;2024-02-26T02:50:23;100116.22;;;3.71;89.05
1480;BME280;732;51.698;4.886;2024-02-26T02:52:53;100131.38;;;3.88;88.52
1480;BME280;732;51.698;4.886;2024-02-26T02:55:22;100123.84;;;3.83;88.72
1480;BME280;732;51.698;4.886;2024-02-26T02:57:51;100114.28;;;3.73;88.81
1480;BME280;732;51.698;4.886;2024-02-26T03:00:20;100084.66;;;3.59;89.02
1480;BME280;732;51.698;4.886;2024-02-26T03:02:50;100127.06;;;3.87;88.97
1480;BME280;732;51.698;4.886;2024-02-26T03:05:19;100126.19;;;3.87;88.84
1480;BME280;732;51.698;4.886;2024-02-26T03:07:47;100046.44;;;3.44;89.09
1480;BME280;732;51.698;4.886;2024-02-26T03:10:17;100117.56;;;3.94;88.94
1480;BME280;732;51.698;4.886;2024-02-26T03:12:46;100097.13;;;3.77;88.89
1480;BME280;732;51.698;4.886;2024-02-26T03:15:15;100122.00;;;3.94;88.70
1480;BME280;732;51.698;4.886;2024-02-26T03:17:43;100081.81;;;3.80;88.32
1480;BME280;732;51.698;4.886;2024-02-26T03:20:12;100124.81;;;4.02;88.37
1480;BME280;732;51.698;4.886;2024-02-26T03:22:41;100129.41;;;4.00;88.39
1480;BME280;732;51.698;4.886;2024-02-26T03:25:10;100129.22;;;4.11;88.32
1480;BME280;732;51.698;4.886;2024-02-26T03:27:40;100124.78;;;4.12;87.91
1480;BME280;732;51.698;4.886;2024-02-26T03:30:10;100125.34;;;3.96;88.26
1480;BME280;732;51.698;4.886;2024-02-26T03:32:38;100092.72;;;3.67;88.62
1480;BME280;732;51.698;4.886;2024-02-26T03:35:08;100135.50;;;4.01;89.06
1480;BME280;732;51.698;4.886;2024-02-26T03:37:37;100136.22;;;4.03;88.67
1480;BME280;732;51.698;4.886;2024-02-26T03:40:07;100114.63;;;3.97;88.55
1480;BME280;732;51.698;4.886;2024-02-26T03:42:36;100105.34;;;3.83;88.56
1480;BME280;732;51.698;4.886;2024-02-26T03:45:08;100137.88;;;4.04;88.78
1480;BME280;732;51.698;4.886;2024-02-26T03:47:38;100107.72;;;3.77;88.99
1480;BME280;732;51.698;4.886;2024-02-26T03:50:08;100098.53;;;3.81;88.72
1480;BME280;732;51.698;4.886;2024-02-26T03:52:37;100138.59;;;3.96;88.73
1480;BME280;732;51.698;4.886;2024-02-26T03:55:07;100150.41;;;4.02;89.04
1480;BME280;732;51.698;4.886;2024-02-26T03:57:37;100122.44;;;3.89;89.00
1480;BME280;732;51.698;4.886;2024-02-26T04:00:08;100143.59;;;3.99;89.17
1480;BME280;732;51.698;4.886;2024-02-26T04:02:38;100144.72;;;3.87;89.12
1480;BME280;732;51.698;4.886;2024-02-26T04:05:10;100126.94;;;3.69;89.63
1480;BME280;732;51.698;4.886;2024-02-26T04:07:39;100162.25;;;3.97;89.48
1480;BME280;732;51.698;4.886;2024-02-26T04:10:12;100159.34;;;3.91;89.46
1480;BME280;732;51.698;4.886;2024-02-26T04:12:41;100136.22;;;3.83;89.13
1480;BME280;732;51.698;4.886;2024-02-26T04:15:12;100156.69;;;3.91;89.48
1480;BME280;732;51.698;4.886;2024-02-26T04:17:41;100117.66;;;3.55;89.79
1480;BME280;732;51.698;4.886;2024-02-26T04:20:14;100109.88;;;3.54;90.22
1480;BME280;732;51.698;4.886;2024-02-26T04:22:44;100101.78;;;3.55;90.40
1480;BME280;732;51.698;4.886;2024-02-26T04:25:13;100146.97;;;3.81;90.14
1480;BME280;732;51.698;4.886;2024-02-26T04:27:42;100099.72;;;3.49;90.44
1480;BME280;732;51.698;4.886;2024-02-26T04:30:12;100142.81;;;3.69;90.82
1480;BME280;732;51.698;4.886;2024-02-26T04:32:41;100147.28;;;3.69;91.38
1480;BME280;732;51.698;4.886;2024-02-26T04:35:10;100154.25;;;3.70;91.20
1480;BME280;732;51.698;4.886;2024-02-26T04:37:39;100158.84;;;3.58;91.42
1480;BME280;732;51.698;4.886;2024-02-26T04:40:08;100134.38;;;3.36;91.73
1480;BME280;732;51.698;4.886;2024-02-26T04:42:37;100166.06;;;3.65;91.75
1480;BME280;732;51.698;4.886;2024-02-26T04:45:07;100166.47;;;3.71;91.44
1480;BME280;732;51.698;4.886;2024-02-26T04:47:37;100147.69;;;3.54;91.60
1480;BME280;732;51.698;4.886;2024-02-26T04:50:07;100080.81;;;3.05;91.81
1480;BME280;732;51.698;4.886;2024-02-26T04:52:36;100140.78;;;3.33;91.96
1480;BME280;732;51.698;4.886;2024-02-26T04:55:05;100155.38;;;3.38;92.23
1480;BME280;732;51.698;4.886;2024-02-26T04:57:34;100160.91;;;3.44;92.20
1480;BME280;732;51.698;4.886;2024-02-26T05:00:04;100139.50;;;3.28;92.24
1480;BME280;732;51.698;4.886;2024-02-26T05:02:33;100190.00;;;3.54;92.32
1480;BME280;732;51.698;4.886;2024-02-26T05:05:08;100159.41;;;3.32;92.16
1480;BME280;732;51.698;4.886;2024-02-26T05:07:40;100127.72;;;3.12;92.38
1480;BME280;732;51.698;4.886;2024-02-26T05:10:09;100181.25;;;3.44;92.88
1480;BME280;732;51.698;4.886;2024-02-26T05:12:38;100169.41;;;3.38;92.56
1480;BME280;732;51.698;4.886;2024-02-26T05:15:10;100182.22;;;3.43;92.51
1480;BME280;732;51.698;4.886;2024-02-26T05:17:40;100171.66;;;3.33;92.54
1480;BME280;732;51.698;4.886;2024-02-26T05:20:11;100179.00;;;3.49;92.19
1480;BME280;732;51.698;4.886;2024-02-26T05:22:39;100188.88;;;3.47;91.79
1480;BME280;732;51.698;4.886;2024-02-26T05:25:08;100201.69;;;3.51;92.54
1480;BME280;732;51.698;4.886;2024-02-26T05:27:37;100150.94;;;3.09;92.69
1480;BME280;732;51.698;4.886;2024-02-26T05:30:07;100203.09;;;3.46;92.43
1480;BME280;732;51.698;4.886;2024-02-26T05:32:36;100210.88;;;3.47;92.49
1480;BME280;732;51.698;4.886;2024-02-26T05:35:06;100210.59;;;3.50;92.66
1480;BME280;732;51.698;4.886;2024-02-26T05:37:37;100156.34;;;3.27;92.40
1480;BME280;732;51.698;4.886;2024-02-26T05:40:07;100212.25;;;3.42;92.71
1480;BME280;732;51.698;4.886;2024-02-26T05:42:36;100207.53;;;3.35;92.92
1480;BME280;732;51.698;4.886;2024-02-26T05:45:06;100206.84;;;3.33;92.79
1480;BME280;732;51.698;4.886;2024-02-26T05:47:36;100211.00;;;3.26;93.34
1480;BME280;732;51.698;4.886;2024-02-26T05:50:10;100221.59;;;3.26;93.51
1480;BME280;732;51.698;4.886;2024-02-26T05:52:43;100206.69;;;3.15;92.90
1480;BME280;732;51.698;4.886;2024-02-26T05:55:12;100174.53;;;2.91;93.31
1480;BME280;732;51.698;4.886;2024-02-26T05:57:41;100242.44;;;3.29;93.37
1480;BME280;732;51.698;4.886;2024-02-26T06:00:11;100245.50;;;3.25;93.87
1480;BME280;732;51.698;4.886;2024-02-26T06:02:42;100219.44;;;3.00;93.89
1480;BME280;732;51.698;4.886;2024-02-26T06:05:10;100223.63;;;3.13;94.02
1480;BME280;732;51.698;4.886;2024-02-26T06:07:39;100246.06;;;3.18;93.32
1480;BME280;732;51.698;4.886;2024-02-26T06:10:11;100262.34;;;3.24;93.60
1480;BME280;732;51.698;4.886;2024-02-26T06:12:41;100231.53;;;3.03;93.94
1480;BME280;732;51.698;4.886;2024-02-26T06:15:10;100268.75;;;3.31;93.49
1480;BME280;732;51.698;4.886;2024-02-26T06:17:39;100228.94;;;3.13;93.19
1480;BME280;732;51.698;4.886;2024-02-26T06:20:08;100276.13;;;3.37;93.17
1480;BME280;732;51.698;4.886;2024-02-26T06:22:40;100239.34;;;3.14;93.19
1480;BME280;732;51.698;4.886;2024-02-26T06:25:10;100245.34;;;3.16;93.10
1480;BME280;732;51.698;4.886;2024-02-26T06:27:39;100284.75;;;3.39;92.66
1480;BME280;732;51.698;4.886;2024-02-26T06:30:08;100270.66;;;3.19;92.85
1480;BME280;732;51.698;4.886;2024-02-26T06:32:38;100289.22;;;3.39;93.25
1480;BME280;732;51.698;4.886;2024-02-26T06:35:08;100278.47;;;3.30;93.19
1480;BME280;732;51.698;4.886;2024-02-26T06:37:39;100293.34;;;3.31;93.24
1480;BME280;732;51.698;4.886;2024-02-26T06:40:10;100303.22;;;3.29;93.21
1480;BME280;732;51.698;4.886;2024-02-26T06:42:39;100229.59;;;2.95;93.57
1480;BME280;732;51.698;4.886;2024-02-26T06:45:10;100306.75;;;3.40;93.40
1480;BME280;732;51.698;4.886;2024-02-26T06:47:39;100291.84;;;3.39;93.26
1480;BME280;732;51.698;4.886;2024-02-26T06:50:13;100302.56;;;3.47;93.03
1480;BME280;732;51.698;4.886;2024-02-26T06:52:44;100291.13;;;3.37;93.03
1480;BME280;732;51.698;4.886;2024-02-26T06:55:15;100314.53;;;3.41;93.49
1480;BME280;732;51.698;4.886;2024-02-26T06:57:44;100308.81;;;3.36;93.07
1480;BME280;732;51.698;4.886;2024-02-26T07:00:17;100276.66;;;3.21;93.10
1480;BME280;732;51.698;4.886;2024-02-26T07:02:46;100279.28;;;3.21;93.30
1480;BME280;732;51.698;4.886;2024-02-26T07:05:16;100314.78;;;3.38;93.16
1480;BME280;732;51.698;4.886;2024-02-26T07:07:44;100294.28;;;3.21;93.35
1480;BME280;732;51.698;4.886;2024-02-26T07:10:15;100315.78;;;3.37;93.39
1480;BME280;732;51.698;4.886;2024-02-26T07:12:43;100319.28;;;3.47;92.98
1480;BME280;732;51.698;4.886;2024-02-26T07:15:12;100321.88;;;3.38;93.22
1480;BME280;732;51.698;4.886;2024-02-26T07:17:41;100321.47;;;3.32;93.35
1480;BME280;732;51.698;4.886;2024-02-26T07:20:15;100335.69;;;3.51;93.25
1480;BME280;732;51.698;4.886;2024-02-26T07:22:46;100352.78;;;3.47;93.04
1480;BME280;732;51.698;4.886;2024-02-26T07:25:16;100316.72;;;3.26;92.98
1480;BME280;732;51.698;4.886;2024-02-26T07:27:45;100360.31;;;3.51;93.25
1480;BME280;732;51.698;4.886;2024-02-26T07:30:14;100368.00;;;3.55;93.38
1480;BME280;732;51.698;4.886;2024-02-26T07:32:43;100363.66;;;3.54;93.29
1480;BME280;732;51.698;4.886;2024-02-26T07:35:17;100365.31;;;3.45;92.78
1480;BME280;732;51.698;4.886;2024-02-26T07:37:48;100355.97;;;3.41;92.90
1480;BME280;732;51.698;4.886;2024-02-26T07:40:19;100379.25;;;3.57;93.17
1480;BME280;732;51.698;4.886;2024-02-26T07:42:48;100318.47;;;3.06;93.20
1480;BME280;732;51.698;4.886;2024-02-26T07:45:16;100273.25;;;2.68;94.05
1480;BME280;732;51.698;4.886;2024-02-26T07:47:47;100314.53;;;3.00;93.96
1480;BME280;732;51.698;4.886;2024-02-26T07:50:16;100399.13;;;3.41;94.39
1480;BME280;732;51.698;4.886;2024-02-26T07:52:45;100393.44;;;3.46;94.15
1480;BME280;732;51.698;4.886;2024-02-26T07:55:13;100350.75;;;3.19;94.40
1480;BME280;732;51.698;4.886;2024-02-26T07:57:43;100322.78;;;3.07;94.08
1480;BME280;732;51.698;4.886;2024-02-26T08:00:14;100396.09;;;3.56;94.01
1480;BME280;732;51.698;4.886;2024-02-26T08:02:44;100395.41;;;3.54;94.27
1480;BME280;732;51.698;4.886;2024-02-26T08:05:13;100393.28;;;3.47;94.27
1480;BME280;732;51.698;4.886;2024-02-26T08:07:41;100337.00;;;3.26;93.92
1480;BME280;732;51.698;4.886;2024-02-26T08:10:11;100376.03;;;3.43;93.71
1480;BME280;732;51.698;4.886;2024-02-26T08:12:39;100415.44;;;3.56;93.78
1480;BME280;732;51.698;4.886;2024-02-26T08:15:10;100417.41;;;3.64;93.74
1480;BME280;732;51.698;4.886;2024-02-26T08:17:38;100403.34;;;3.54;93.67
1480;BME280;732;51.698;4.886;2024-02-26T08:20:08;100423.41;;;3.66;93.80
1480;BME280;732;51.698;4.886;2024-02-26T08:22:37;100421.34;;;3.70;93.45
1480;BME280;732;51.698;4.886;2024-02-26T08:25:07;100425.72;;;3.59;93.46
1480;BME280;732;51.698;4.886;2024-02-26T08:27:37;100432.69;;;3.60;93.97
1480;BME280;732;51.698;4.886;2024-02-26T08:30:09;100405.22;;;3.42;93.94
1480;BME280;732;51.698;4.886;2024-02-26T08:32:40;100422.09;;;3.50;94.20
1480;BME280;732;51.698;4.886;2024-02-26T08:35:10;100423.88;;;3.40;94.13
1480;BME280;732;51.698;4.886;2024-02-26T08:37:39;100439.38;;;3.55;94.21
1480;BME280;732;51.698;4.886;2024-02-26T08:40:09;100458.47;;;3.68;94.29
1480;BME280;732;51.698;4.886;2024-02-26T08:42:38;100450.03;;;3.84;94.35
1480;BME280;732;51.698;4.886;2024-02-26T08:45:09;100458.06;;;3.73;93.87
1480;BME280;732;51.698;4.886;2024-02-26T08:47:38;100466.97;;;3.72;94.23
1480;BME280;732;51.698;4.886;2024-02-26T08:50:08;100462.56;;;3.82;94.35
1480;BME280;732;51.698;4.886;2024-02-26T08:52:39;100385.63;;;3.13;94.01
1480;BME280;732;51.698;4.886;2024-02-26T08:55:08;100443.81;;;3.54;94.31
1480;BME280;732;51.698;4.886;2024-02-26T08:57:37;100461.00;;;3.70;94.19
1480;BME280;732;51.698;4.886;2024-02-26T09:00:09;100454.25;;;3.56;94.29
1480;BME280;732;51.698;4.886;2024-02-26T09:02:38;100474.38;;;3.47;94.78
1480;BME280;732;51.698;4.886;2024-02-26T09:05:07;100482.75;;;3.42;95.23
1480;BME280;732;51.698;4.886;2024-02-26T09:07:36;100492.91;;;3.47;95.31
1480;BME280;732;51.698;4.886;2024-02-26T09:10:07;100485.88;;;3.57;95.33
1480;BME280;732;51.698;4.886;2024-02-26T09:12:38;100474.00;;;3.51;95.44
1480;BME280;732;51.698;4.886;2024-02-26T09:15:09;100472.22;;;3.52;95.44
1480;BME280;732;51.698;4.886;2024-02-26T09:17:38;100468.47;;;3.55;95.39
1480;BME280;732;51.698;4.886;2024-02-26T09:20:08;100502.06;;;3.74;95.10
1480;BME280;732;51.698;4.886;2024-02-26T09:22:37;100501.25;;;3.73;94.83
1480;BME280;732;51.698;4.886;2024-02-26T09:25:07;100499.69;;;3.71;95.20
1480;BME280;732;51.698;4.886;2024-02-26T09:27:36;100515.72;;;3.79;94.96
1480;BME280;732;51.698;4.886;2024-02-26T09:30:13;100513.38;;;3.76;94.66
1480;BME280;732;51.698;4.886;2024-02-26T09:32:46;100475.69;;;3.53;94.85
1480;BME280;732;51.698;4.886;2024-02-26T09:35:15;100492.31;;;3.74;94.46
1480;BME280;732;51.698;4.886;2024-02-26T09:37:44;100519.00;;;3.92;94.55
1480;BME280;732;51.698;4.886;2024-02-26T09:40:16;100484.94;;;3.78;94.11
1480;BME280;732;51.698;4.886;2024-02-26T09:42:45;100513.38;;;3.86;94.38
1480;BME280;732;51.698;4.886;2024-02-26T09:45:19;100541.09;;;4.12;93.86
1480;BME280;732;51.698;4.886;2024-02-26T09:47:50;100542.03;;;4.11;93.73
1480;BME280;732;51.698;4.886;2024-02-26T09:50:21;100526.88;;;3.82;93.82
1480;BME280;732;51.698;4.886;2024-02-26T09:52:51;100553.06;;;4.17;94.33
1480;BME280;732;51.698;4.886;2024-02-26T09:55:21;100559.31;;;4.15;93.91
1480;BME280;732;51.698;4.886;2024-02-26T09:57:52;100560.78;;;4.29;93.69
1480;BME280;732;51.698;4.886;2024-02-26T10:00:23;100552.41;;;4.24;93.31
1480;BME280;732;51.698;4.886;2024-02-26T10:02:54;100513.38;;;3.86;93.26
1480;BME280;732;51.698;4.886;2024-02-26T10:05:24;100575.63;;;4.11;93.90
1480;BME280;732;51.698;4.886;2024-02-26T10:07:53;100527.28;;;3.78;93.81
1480;BME280;732;51.698;4.886;2024-02-26T10:10:23;100583.13;;;4.06;94.04
1480;BME280;732;51.698;4.886;2024-02-26T10:12:52;100583.19;;;3.94;93.80
1480;BME280;732;51.698;4.886;2024-02-26T10:15:22;100593.16;;;3.81;94.11
1480;BME280;732;51.698;4.886;2024-02-26T10:17:51;100572.97;;;3.80;94.48
1480;BME280;732;51.698;4.886;2024-02-26T10:20:21;100613.88;;;4.07;94.27
1480;BME280;732;51.698;4.886;2024-02-26T10:22:51;100594.03;;;3.91;94.55
1480;BME280;732;51.698;4.886;2024-02-26T10:25:22;100605.13;;;4.06;94.29
1480;BME280;732;51.698;4.886;2024-02-26T10:27:51;100605.19;;;3.95;93.81
1480;BME280;732;51.698;4.886;2024-02-26T10:30:22;100607.47;;;3.99;93.67
1480;BME280;732;51.698;4.886;2024-02-26T10:32:53;100597.06;;;3.87;94.01
1480;BME280;732;51.698;4.886;2024-02-26T10:35:22;100626.97;;;3.98;93.75
1480;BME280;732;51.698;4.886;2024-02-26T10:37:51;100614.38;;;3.91;94.37
1480;BME280;732;51.698;4.886;2024-02-26T10:40:21;100614.31;;;3.81;94.40
1480;BME280;732;51.698;4.886;2024-02-26T10:42:50;100634.81;;;3.89;94.36
1480;BME280;732;51.698;4.886;2024-02-26T10:45:19;100640.25;;;3.87;94.35
1480;BME280;732;51.698;4.886;2024-02-26T10:47:49;100659.88;;;4.06;94.38
1480;BME280;732;51.698;4.886;2024-02-26T10:50:20;100659.97;;;4.04;94.07
1480;BME280;732;51.698;4.886;2024-02-26T10:52:49;100641.03;;;3.99;93.79
1480;BME280;732;51.698;4.886;2024-02-26T10:55:17;100653.84;;;3.82;94.18
1480;BME280;732;51.698;4.886;2024-02-26T10:57:52;100639.66;;;3.83;94.57
1480;BME280;732;51.698;4.886;2024-02-26T11:00:21;100667.34;;;4.01;94.32
1480;BME280;732;51.698;4.886;2024-02-26T11:02:53;100660.97;;;4.03;94.10
1480;BME280;732;51.698;4.886;2024-02-26T11:05:23;100602.72;;;3.51;94.69
1480;BME280;732;51.698;4.886;2024-02-26T11:07:53;100595.47;;;3.53;94.48
1480;BME280;732;51.698;4.886;2024-02-26T11:10:23;100686.13;;;4.19;94.61
1480;BME280;732;51.698;4.886;2024-02-26T11:12:54;100642.75;;;4.10;94.30
1480;BME280;732;51.698;4.886;2024-02-26T11:15:24;100688.63;;;4.51;93.55
1480;BME280;732;51.698;4.886;2024-02-26T11:17:55;100691.97;;;4.53;93.47
1480;BME280;732;51.698;4.886;2024-02-26T11:20:26;100630.19;;;4.02;92.80
1480;BME280;732;51.698;4.886;2024-02-26T11:22:56;100690.06;;;4.24;92.93
1480;BME280;732;51.698;4.886;2024-02-26T11:25:25;100681.72;;;4.08;93.37
1480;BME280;732;51.698;4.886;2024-02-26T11:27:58;100697.81;;;4.16;93.82
1480;BME280;732;51.698;4.886;2024-02-26T11:30:32;100679.22;;;4.06;94.19
1480;BME280;732;51.698;4.886;2024-02-26T11:33:06;100684.78;;;4.03;93.89
1480;BME280;732;51.698;4.886;2024-02-26T11:35:36;100706.63;;;4.26;93.74
1480;BME280;732;51.698;4.886;2024-02-26T11:38:06;100698.00;;;4.24;93.66
1480;BME280;732;51.698;4.886;2024-02-26T11:40:38;100661.81;;;4.04;93.66
1480;BME280;732;51.698;4.886;2024-02-26T11:43:08;100712.63;;;4.28;93.25
1480;BME280;732;51.698;4.886;2024-02-26T11:45:50;100705.75;;;4.16;93.82
1480;BME280;732;51.698;4.886;2024-02-26T11:48:25;100715.16;;;4.09;93.73
1480;BME280;732;51.698;4.886;2024-02-26T11:50:55;100691.78;;;3.93;94.36
1480;BME280;732;51.698;4.886;2024-02-26T11:53:27;100682.69;;;3.86;94.21
1480;BME280;732;51.698;4.886;2024-02-26T11:56:22;100692.81;;;3.80;94.52
1480;BME280;732;51.698;4.886;2024-02-26T11:59:00;100679.00;;;3.77;94.96
1480;BME280;732;51.698;4.886;2024-02-26T12:01:43;100697.16;;;4.03;94.83
1480;BME280;732;51.698;4.886;2024-02-26T12:04:18;100727.63;;;4.18;94.90
1480;BME280;732;51.698;4.886;2024-02-26T12:06:51;100724.41;;;4.14;95.07
1480;BME280;732;51.698;4.886;2024-02-26T12:09:34;100708.75;;;3.90;94.93
1480;BME280;732;51.698;4.886;2024-02-26T12:12:07;100736.63;;;4.06;95.09
1480;BME280;732;51.698;4.886;2024-02-26T12:14:50;100721.63;;;4.16;95.43
1480;BME280;732;51.698;4.886;2024-02-26T12:17:21;100728.53;;;4.07;95.01
1480;BME280;732;51.698;4.886;2024-02-26T12:19:51;100733.50;;;4.01;95.30
1480;BME280;732;51.698;4.886;2024-02-26T12:22:21;100710.06;;;3.96;95.56
1480;BME280;732;51.698;4.886;2024-02-26T12:24:59;100686.19;;;3.86;95.16
1480;BME280;732;51.698;4.886;2024-02-26T12:27:28;100748.03;;;4.06;95.33
1480;BME280;732;51.698;4.886;2024-02-26T12:29:57;100757.72;;;4.17;95.79
1480;BME280;732;51.698;4.886;2024-02-26T12:32:26;100763.91;;;4.27;95.80
1480;BME280;732;51.698;4.886;2024-02-26T12:34:57;100770.44;;;4.02;95.10
1480;BME280;732;51.698;4.886;2024-02-26T12:37:25;100768.69;;;4.12;95.75
1480;BME280;732;51.698;4.886;2024-02-26T12:39:54;100772.06;;;4.14;95.63
1480;BME280;732;51.698;4.886;2024-02-26T12:42:23;100747.59;;;4.01;95.56
1480;BME280;732;51.698;4.886;2024-02-26T12:44:53;100786.25;;;4.13;95.59
1480;BME280;732;51.698;4.886;2024-02-26T12:47:21;100735.94;;;3.92;95.20
1480;BME280;732;51.698;4.886;2024-02-26T12:49:50;100793.28;;;4.24;95.44
1480;BME280;732;51.698;4.886;2024-02-26T12:52:20;100745.13;;;4.09;95.30
1480;BME280;732;51.698;4.886;2024-02-26T12:54:50;100792.38;;;4.35;94.79
1480;BME280;732;51.698;4.886;2024-02-26T12:57:19;100811.94;;;4.23;94.85
1480;BME280;732;51.698;4.886;2024-02-26T12:59:48;100689.72;;;3.54;95.11
1480;BME280;732;51.698;4.886;2024-02-26T13:02:17;100822.72;;;4.52;94.90
1480;BME280;732;51.698;4.886;2024-02-26T13:04:46;100796.50;;;4.28;94.46
1480;BME280;732;51.698;4.886;2024-02-26T13:07:14;100828.59;;;4.35;94.65
1480;BME280;732;51.698;4.886;2024-02-26T13:09:45;100765.41;;;3.88;94.68
1480;BME280;732;51.698;4.886;2024-02-26T13:12:14;100831.94;;;4.15;95.38
1480;BME280;732;51.698;4.886;2024-02-26T13:14:42;100832.16;;;4.45;95.02
1480;BME280;732;51.698;4.886;2024-02-26T13:17:11;100827.81;;;4.44;94.98
1480;BME280;732;51.698;4.886;2024-02-26T13:19:49;100827.16;;;4.30;94.94
1480;BME280;732;51.698;4.886;2024-02-26T13:22:21;100805.38;;;4.17;94.48
1480;BME280;732;51.698;4.886;2024-02-26T13:24:56;100846.41;;;4.54;94.13
1480;BME280;732;51.698;4.886;2024-02-26T13:27:25;100825.50;;;4.51;94.68
1480;BME280;732;51.698;4.886;2024-02-26T13:30:08;100852.50;;;4.66;94.04
1480;BME280;732;51.698;4.886;2024-02-26T13:32:39;100858.69;;;4.76;93.81
1480;BME280;732;51.698;4.886;2024-02-26T13:35:10;100824.41;;;4.53;93.45
1480;BME280;732;51.698;4.886;2024-02-26T13:37:41;100868.47;;;4.85;93.36
1480;BME280;732;51.698;4.886;2024-02-26T13:40:12;100857.44;;;4.80;92.85
1480;BME280;732;51.698;4.886;2024-02-26T13:42:40;100858.63;;;4.66;92.68
1480;BME280;732;51.698;4.886;2024-02-26T13:45:09;100870.03;;;4.67;92.81
1480;BME280;732;51.698;4.886;2024-02-26T13:47:38;100823.91;;;4.38;92.28